createdAt,value
2022-11-16T00:00:20.007Z,49.10
2022-11-16T00:03:04.824Z,54.20
2022-11-16T00:05:32.453Z,48.90
2022-11-16T00:08:00.099Z,49.30
2022-11-16T00:10:27.709Z,52.90
2022-11-16T00:12:55.340Z,52.70
2022-11-16T00:15:22.971Z,47.50
2022-11-16T00:17:50.571Z,56.60
2022-11-16T00:20:18.176Z,56.40
2022-11-16T00:22:45.742Z,50.50
2022-11-16T00:25:13.407Z,53.10
2022-11-16T00:27:41.001Z,55.00
2022-11-16T00:30:09.114Z,59.10
2022-11-16T00:32:36.708Z,53.60
2022-11-16T00:35:04.564Z,51.70
2022-11-16T00:37:32.392Z,48.80
2022-11-16T00:39:59.957Z,56.20
2022-11-16T00:42:27.540Z,56.60
2022-11-16T00:44:55.109Z,48.30
2022-11-16T00:47:22.655Z,55.20
2022-11-16T00:49:50.443Z,49.60
2022-11-16T00:52:18.004Z,53.40
2022-11-16T00:54:45.691Z,51.20
2022-11-16T00:57:13.246Z,46.50
2022-11-16T00:59:40.859Z,58.50
2022-11-16T01:02:08.418Z,51.10
2022-11-16T01:04:36.048Z,59.70
2022-11-16T01:07:03.723Z,50.40
2022-11-16T01:09:31.542Z,57.80
2022-11-16T01:11:59.115Z,57.70
2022-11-16T01:14:26.760Z,43.50
2022-11-16T01:16:54.378Z,54.90
2022-11-16T01:19:21.941Z,53.00
2022-11-16T01:21:49.521Z,54.90
2022-11-16T01:24:17.112Z,60.70
2022-11-16T01:26:44.687Z,59.40
2022-11-16T01:29:12.300Z,58.20
2022-11-16T01:31:39.931Z,49.30
2022-11-16T01:34:08.035Z,57.20
2022-11-16T01:36:35.636Z,61.60
2022-11-16T01:39:04.967Z,56.30
2022-11-16T01:41:33.126Z,47.30
2022-11-16T01:44:05.117Z,55.70
2022-11-16T01:46:32.951Z,50.70
2022-11-16T01:49:06.745Z,49.20
2022-11-16T01:51:35.203Z,56.00
2022-11-16T01:54:08.542Z,53.40
2022-11-16T01:56:38.830Z,60.00
2022-11-16T01:59:06.775Z,51.50
2022-11-16T02:01:34.466Z,53.40
2022-11-16T02:04:02.141Z,49.10
2022-11-16T02:06:59.685Z,52.40
2022-11-16T02:09:48.406Z,51.40
2022-11-16T02:12:36.361Z,49.30
2022-11-16T02:15:19.100Z,46.60
2022-11-16T02:18:05.413Z,44.10
2022-11-16T02:21:04.085Z,53.00
2022-11-16T02:23:53.380Z,50.10
2022-11-16T02:26:33.269Z,53.90
2022-11-16T02:29:23.839Z,55.30
2022-11-16T02:31:55.758Z,49.70
2022-11-16T02:34:32.072Z,46.10
2022-11-16T02:37:02.220Z,42.20
2022-11-16T02:39:32.691Z,52.60
2022-11-16T02:42:02.765Z,47.00
2022-11-16T02:44:34.367Z,53.80
2022-11-16T02:47:07.695Z,52.70
2022-11-16T02:49:45.488Z,51.30
2022-11-16T02:52:16.303Z,47.90
2022-11-16T02:54:46.152Z,52.50
2022-11-16T02:57:32.087Z,50.70
2022-11-16T03:00:01.291Z,50.70
2022-11-16T03:02:36.166Z,55.10
2022-11-16T03:05:27.805Z,52.70
2022-11-16T03:08:00.790Z,49.90
2022-11-16T03:10:29.937Z,47.60
2022-11-16T03:13:01.944Z,50.30
2022-11-16T03:15:39.997Z,53.60
2022-11-16T03:18:16.800Z,57.70
2022-11-16T03:20:46.723Z,51.40
2022-11-16T03:23:14.877Z,49.90
2022-11-16T03:26:15.394Z,43.60
2022-11-16T03:28:48.855Z,49.70
2022-11-16T03:31:28.300Z,47.50
2022-11-16T03:34:00.978Z,50.40
2022-11-16T03:36:32.597Z,38.30
2022-11-16T03:41:32.426Z,36.60
2022-11-16T03:44:01.126Z,46.30
2022-11-16T03:46:28.920Z,48.50
2022-11-16T03:49:00.612Z,50.40
2022-11-16T03:53:55.845Z,42.20
2022-11-16T03:56:23.459Z,51.80
2022-11-16T03:58:51.051Z,44.40
2022-11-16T04:01:18.768Z,48.20
2022-11-16T04:03:46.503Z,47.40
2022-11-16T04:06:14.267Z,54.20
2022-11-16T04:08:41.925Z,50.70
2022-11-16T04:11:19.262Z,47.00
2022-11-16T04:13:47.454Z,44.50
2022-11-16T04:16:15.065Z,51.00
2022-11-16T04:18:42.670Z,46.10
2022-11-16T04:21:22.243Z,47.40
2022-11-16T04:23:49.998Z,44.80
2022-11-16T04:26:18.089Z,46.40
2022-11-16T04:28:48.354Z,57.60
2022-11-16T04:31:15.937Z,51.20
2022-11-16T04:33:44.204Z,46.10
2022-11-16T04:36:15.373Z,50.40
2022-11-16T04:38:45.557Z,51.60
2022-11-16T04:41:13.201Z,43.80
2022-11-16T04:43:40.792Z,45.90
2022-11-16T04:46:08.357Z,51.80
2022-11-16T04:48:36.313Z,44.20
2022-11-16T04:51:04.372Z,41.30
2022-11-16T04:53:31.981Z,46.10
2022-11-16T04:56:00.981Z,51.20
2022-11-16T04:58:28.768Z,48.40
2022-11-16T05:00:56.417Z,46.90
2022-11-16T05:03:24.137Z,48.70
2022-11-16T05:05:51.761Z,44.70
2022-11-16T05:08:19.305Z,49.30
2022-11-16T05:10:51.039Z,46.00
2022-11-16T05:13:18.619Z,50.80
2022-11-16T05:15:46.471Z,44.80
2022-11-16T05:18:14.074Z,50.40
2022-11-16T05:20:41.821Z,45.10
2022-11-16T05:23:09.823Z,51.70
2022-11-16T05:25:37.671Z,44.10
2022-11-16T05:28:05.343Z,52.60
2022-11-16T05:30:32.942Z,49.70
2022-11-16T05:33:00.543Z,42.20
2022-11-16T05:35:28.113Z,47.20
2022-11-16T05:37:55.704Z,43.10
2022-11-16T05:40:23.279Z,48.30
2022-11-16T05:42:50.863Z,53.00
2022-11-16T05:45:20.965Z,44.10
2022-11-16T05:47:48.916Z,49.30
2022-11-16T05:50:16.649Z,39.70
2022-11-16T05:52:44.231Z,49.80
2022-11-16T05:55:11.829Z,47.70
2022-11-16T05:57:39.387Z,46.60
2022-11-16T06:00:07.732Z,49.00
2022-11-16T06:02:35.371Z,47.80
2022-11-16T06:05:03.285Z,52.60
2022-11-16T06:07:30.968Z,47.30
2022-11-16T06:09:58.588Z,48.90
2022-11-16T06:12:26.233Z,47.00
2022-11-16T06:14:53.788Z,47.40
2022-11-16T06:17:21.361Z,50.00
2022-11-16T06:19:49.000Z,45.80
2022-11-16T06:22:16.573Z,41.10
2022-11-16T06:24:44.166Z,49.60
2022-11-16T06:27:11.710Z,46.40
2022-11-16T06:29:39.292Z,46.50
2022-11-16T06:32:06.931Z,43.10
2022-11-16T06:34:34.541Z,43.30
2022-11-16T06:37:02.155Z,49.60
2022-11-16T06:39:29.726Z,53.80
2022-11-16T06:41:57.311Z,53.70
2022-11-16T06:44:24.884Z,52.10
2022-11-16T06:46:52.476Z,51.10
2022-11-16T06:49:20.049Z,54.80
2022-11-16T06:51:47.616Z,59.10
2022-11-16T06:54:15.165Z,121.20
2022-11-16T06:56:42.732Z,104.80
2022-11-16T06:59:10.274Z,73.20
2022-11-16T07:01:38.450Z,70.40
2022-11-16T07:04:08.456Z,53.50
2022-11-16T07:06:36.106Z,53.40
2022-11-16T07:09:07.347Z,59.60
2022-11-16T07:11:36.163Z,54.30
2022-11-16T07:14:04.402Z,59.50
2022-11-16T07:16:34.255Z,46.50
2022-11-16T07:19:02.244Z,47.10
2022-11-16T07:21:30.781Z,51.80
2022-11-16T07:23:58.353Z,54.50
2022-11-16T07:26:25.978Z,49.70
2022-11-16T07:28:53.550Z,51.80
2022-11-16T07:31:21.150Z,51.80
2022-11-16T07:33:48.692Z,46.00
2022-11-16T07:36:16.387Z,64.00
2022-11-16T07:38:44.355Z,45.80
2022-11-16T07:41:17.429Z,54.30
2022-11-16T07:43:51.529Z,54.60
2022-11-16T07:46:46.156Z,49.80
2022-11-16T07:49:14.255Z,52.60
2022-11-16T07:51:42.591Z,54.40
2022-11-16T07:54:14.644Z,61.90
2022-11-16T07:56:42.623Z,54.70
2022-11-16T07:59:10.275Z,54.20
2022-11-16T08:01:37.939Z,53.80
2022-11-16T08:04:05.517Z,51.90
2022-11-16T08:06:33.096Z,57.10
2022-11-16T08:09:00.661Z,63.50
2022-11-16T08:11:28.293Z,64.90
2022-11-16T08:13:56.536Z,64.40
2022-11-16T08:16:24.121Z,57.80
2022-11-16T08:18:51.826Z,56.00
2022-11-16T08:21:19.903Z,51.50
2022-11-16T08:23:47.477Z,49.70
2022-11-16T08:26:17.643Z,55.90
2022-11-16T08:28:47.671Z,58.60
2022-11-16T08:31:21.129Z,56.80
2022-11-16T08:33:48.710Z,52.70
2022-11-16T08:36:16.288Z,53.50
2022-11-16T08:38:45.190Z,52.50
2022-11-16T08:41:13.373Z,51.50
2022-11-16T08:43:41.148Z,48.90
2022-11-16T08:46:10.379Z,44.70
2022-11-16T08:48:38.405Z,49.80
2022-11-16T08:51:20.409Z,48.70
2022-11-16T08:53:49.704Z,49.90
2022-11-16T08:56:18.726Z,54.10
2022-11-16T08:58:46.781Z,50.10
2022-11-16T09:01:17.495Z,52.20
2022-11-16T09:03:45.595Z,51.60
2022-11-16T09:06:13.924Z,49.70
2022-11-16T09:08:43.383Z,55.00
2022-11-16T09:11:18.293Z,55.90
2022-11-16T09:13:47.662Z,63.30
2022-11-16T09:16:15.685Z,51.50
2022-11-16T09:18:47.789Z,52.20
2022-11-16T09:21:20.772Z,49.30
2022-11-16T09:23:49.257Z,51.50
2022-11-16T09:26:17.969Z,49.90
2022-11-16T09:28:45.579Z,50.40
2022-11-16T09:31:15.563Z,49.80
2022-11-16T09:33:46.579Z,49.90
2022-11-16T09:36:14.204Z,43.80
2022-11-16T09:39:17.845Z,49.80
2022-11-16T09:41:46.129Z,42.90
2022-11-16T09:44:29.083Z,48.70
2022-11-16T09:46:59.451Z,49.70
2022-11-16T09:49:36.340Z,53.90
2022-11-16T09:52:09.774Z,50.20
2022-11-16T09:54:42.376Z,44.60
2022-11-16T09:57:14.679Z,49.90
2022-11-16T09:59:49.588Z,45.50
2022-11-16T10:02:40.220Z,48.90
2022-11-16T10:05:16.212Z,44.60
2022-11-16T10:07:47.037Z,48.50
2022-11-16T10:10:36.792Z,50.50
2022-11-16T10:13:23.430Z,44.30
2022-11-16T10:15:53.650Z,38.50
2022-11-16T10:18:32.353Z,42.30
2022-11-16T10:21:18.067Z,38.60
2022-11-16T10:24:17.486Z,42.60
2022-11-16T10:27:05.818Z,42.60
2022-11-16T10:30:09.157Z,47.90
2022-11-16T10:32:47.273Z,41.90
2022-11-16T10:35:27.369Z,42.10
2022-11-16T10:37:55.720Z,46.00
2022-11-16T10:40:29.874Z,47.70
2022-11-16T10:43:18.804Z,47.60
2022-11-16T10:46:20.139Z,40.90
2022-11-16T10:49:00.406Z,44.10
2022-11-16T10:51:28.037Z,43.40
2022-11-16T10:53:55.683Z,44.60
2022-11-16T10:56:47.059Z,47.50
2022-11-16T10:59:18.666Z,47.60
2022-11-16T11:04:21.924Z,32.20
2022-11-16T11:06:52.720Z,39.20
2022-11-16T11:09:32.072Z,37.50
2022-11-16T11:12:01.151Z,44.90
2022-11-16T11:14:28.743Z,41.30
2022-11-16T11:17:11.245Z,42.00
2022-11-16T11:19:38.788Z,40.60
2022-11-16T11:22:13.733Z,45.90
2022-11-16T11:24:47.534Z,40.10
2022-11-16T11:27:22.309Z,42.30
2022-11-16T11:29:54.307Z,42.90
2022-11-16T11:32:25.048Z,36.60
2022-11-16T11:34:54.541Z,43.30
2022-11-16T11:37:29.815Z,41.90
2022-11-16T11:40:17.154Z,40.80
2022-11-16T11:42:57.050Z,41.60
2022-11-16T11:45:50.431Z,43.60
2022-11-16T11:48:29.980Z,42.80
2022-11-16T11:51:32.843Z,49.80
2022-11-16T11:54:04.679Z,45.70
2022-11-16T11:56:33.355Z,41.50
2022-11-16T11:59:04.716Z,43.80
2022-11-16T12:01:57.516Z,40.60
2022-11-16T12:04:43.145Z,37.20
2022-11-16T12:07:35.290Z,37.60
2022-11-16T12:10:02.810Z,39.10
2022-11-16T12:12:50.527Z,39.90
2022-11-16T12:16:09.529Z,39.70
2022-11-16T12:19:14.147Z,38.20
2022-11-16T12:22:03.607Z,40.80
2022-11-16T12:24:46.538Z,41.40
2022-11-16T12:27:43.476Z,43.60
2022-11-16T12:30:19.204Z,40.00
2022-11-16T12:33:13.955Z,36.80
2022-11-16T12:36:00.883Z,39.10
2022-11-16T12:38:47.380Z,43.70
2022-11-16T12:41:26.895Z,42.70
2022-11-16T12:44:10.935Z,67.70
2022-11-16T12:46:57.487Z,66.70
2022-11-16T12:49:27.723Z,51.90
2022-11-16T12:52:21.839Z,39.90
2022-11-16T12:55:25.479Z,42.50
2022-11-16T12:58:03.780Z,71.90
2022-11-16T13:00:45.028Z,95.30
2022-11-16T13:03:31.594Z,74.70
2022-11-16T13:06:05.048Z,43.80
2022-11-16T13:08:40.073Z,44.40
2022-11-16T13:11:22.358Z,40.90
2022-11-16T13:13:56.356Z,42.40
2022-11-16T13:16:25.165Z,42.90
2022-11-16T13:18:54.403Z,41.60
2022-11-16T13:21:40.250Z,38.60
2022-11-16T13:24:24.503Z,43.50
2022-11-16T13:27:10.512Z,35.00
2022-11-16T13:29:46.417Z,34.40
2022-11-16T13:32:24.188Z,38.60
2022-11-16T13:34:52.541Z,36.90
2022-11-16T13:37:38.298Z,35.20
2022-11-16T13:40:05.929Z,35.80
2022-11-16T13:42:39.072Z,38.70
2022-11-16T13:45:19.126Z,37.90
2022-11-16T13:47:53.034Z,38.20
2022-11-16T13:50:24.248Z,33.60
2022-11-16T13:55:45.448Z,35.90
2022-11-16T13:58:21.564Z,38.40
2022-11-16T14:01:01.326Z,39.10
2022-11-16T14:03:32.861Z,33.60
2022-11-16T14:06:00.761Z,34.60
2022-11-16T14:08:34.280Z,35.90
2022-11-16T14:11:01.979Z,37.10
2022-11-16T14:13:39.698Z,35.40
2022-11-16T14:16:19.661Z,31.60
2022-11-16T14:18:51.567Z,31.20
2022-11-16T14:21:19.141Z,33.00
2022-11-16T14:24:05.364Z,35.60
2022-11-16T14:26:36.044Z,36.30
2022-11-16T14:29:25.145Z,30.60
2022-11-16T14:31:55.815Z,28.90
2022-11-16T14:34:32.730Z,29.80
2022-11-16T14:37:00.597Z,28.50
2022-11-16T14:39:43.244Z,29.70
2022-11-16T14:42:22.592Z,27.60
2022-11-16T14:44:57.231Z,28.90
2022-11-16T14:47:26.993Z,29.30
2022-11-16T14:49:55.541Z,26.60
2022-11-16T14:52:45.359Z,26.10
2022-11-16T14:55:21.546Z,26.50
2022-11-16T14:57:49.106Z,26.10
2022-11-16T15:00:21.244Z,28.90
2022-11-16T15:02:57.688Z,23.20
2022-11-16T15:05:34.497Z,32.00
2022-11-16T15:08:07.868Z,32.70
2022-11-16T15:10:35.757Z,24.70
2022-11-16T15:13:04.212Z,29.40
2022-11-16T15:15:31.959Z,27.20
2022-11-16T15:17:59.623Z,26.20
2022-11-16T15:20:30.345Z,24.50
2022-11-16T15:22:59.209Z,26.00
2022-11-16T15:25:28.589Z,22.20
2022-11-16T15:27:58.229Z,27.00
2022-11-16T15:30:29.120Z,26.30
2022-11-16T15:32:57.292Z,25.10
2022-11-16T15:35:28.271Z,25.50
2022-11-16T15:38:06.460Z,25.60
2022-11-16T15:40:34.848Z,28.80
2022-11-16T15:43:05.052Z,24.80
2022-11-16T15:45:33.886Z,25.80
2022-11-16T15:48:02.559Z,26.10
2022-11-16T15:50:30.962Z,27.50
2022-11-16T15:52:59.188Z,28.30
2022-11-16T15:55:29.787Z,23.60
2022-11-16T15:58:19.658Z,26.40
2022-11-16T16:00:48.213Z,26.70
2022-11-16T16:03:21.475Z,25.80
2022-11-16T16:05:49.611Z,21.50
2022-11-16T16:08:27.643Z,23.20
2022-11-16T16:10:58.907Z,25.00
2022-11-16T16:13:40.289Z,23.10
2022-11-16T16:16:17.079Z,25.80
2022-11-16T16:18:45.447Z,23.60
2022-11-16T16:21:13.563Z,27.30
2022-11-16T16:23:50.509Z,26.60
2022-11-16T16:26:18.318Z,25.60
2022-11-16T16:28:45.944Z,25.30
2022-11-16T16:31:13.712Z,25.00
2022-11-16T16:33:44.037Z,26.20
2022-11-16T16:36:11.603Z,24.90
2022-11-16T16:38:40.058Z,29.40
2022-11-16T16:41:08.087Z,30.20
2022-11-16T16:43:35.903Z,26.00
2022-11-16T16:46:04.176Z,28.40
2022-11-16T16:48:31.739Z,26.10
2022-11-16T16:50:59.318Z,25.90
2022-11-16T16:53:27.150Z,26.00
2022-11-16T16:55:54.780Z,25.40
2022-11-16T16:58:25.110Z,24.30
2022-11-16T17:00:56.933Z,21.40
2022-11-16T17:03:27.545Z,25.90
2022-11-16T17:06:00.004Z,21.20
2022-11-16T17:08:32.324Z,23.60
2022-11-16T17:11:01.867Z,21.00
2022-11-16T17:13:29.743Z,25.40
2022-11-16T17:15:57.323Z,24.80
2022-11-16T17:18:26.215Z,25.40
2022-11-16T17:20:53.829Z,22.90
2022-11-16T17:23:21.447Z,23.10
2022-11-16T17:25:49.005Z,24.00
2022-11-16T17:28:16.595Z,26.60
2022-11-16T17:30:44.384Z,26.10
2022-11-16T17:33:12.047Z,24.20
2022-11-16T17:35:39.708Z,31.40
2022-11-16T17:38:09.911Z,28.30
2022-11-16T17:40:37.490Z,28.00
2022-11-16T17:43:05.091Z,37.30
2022-11-16T17:45:32.787Z,33.40
2022-11-16T17:48:00.388Z,31.80
2022-11-16T17:50:27.959Z,28.60
2022-11-16T17:52:55.584Z,25.00
2022-11-16T17:55:23.191Z,23.90
2022-11-16T17:57:50.858Z,24.40
2022-11-16T18:00:18.828Z,27.50
2022-11-16T18:02:46.445Z,26.70
2022-11-16T18:05:14.140Z,21.70
2022-11-16T18:07:41.704Z,29.30
2022-11-16T18:10:09.689Z,26.60
2022-11-16T18:12:37.484Z,23.00
2022-11-16T18:15:27.540Z,21.80
2022-11-16T18:17:53.312Z,19.80
2022-11-16T18:20:20.908Z,21.70
2022-11-16T18:22:48.568Z,20.30
2022-11-16T18:25:16.225Z,22.10
2022-11-16T18:27:43.818Z,23.20
2022-11-16T18:30:11.715Z,20.80
2022-11-16T18:32:39.338Z,21.00
2022-11-16T18:35:07.253Z,23.60
2022-11-16T18:37:34.801Z,27.90
2022-11-16T18:40:03.108Z,26.10
2022-11-16T18:42:30.684Z,23.30
2022-11-16T18:44:58.254Z,23.90
2022-11-16T18:47:25.894Z,23.80
2022-11-16T18:49:53.854Z,25.30
2022-11-16T18:52:21.514Z,23.60
2022-11-16T18:54:49.112Z,22.70
2022-11-16T18:57:16.729Z,20.60
2022-11-16T18:59:44.321Z,27.10
2022-11-16T19:02:12.882Z,21.10
2022-11-16T19:04:41.213Z,21.60
2022-11-16T19:07:10.159Z,20.00
2022-11-16T19:09:37.756Z,23.50
2022-11-16T19:12:05.501Z,23.00
2022-11-16T19:14:33.115Z,24.50
2022-11-16T19:17:00.737Z,25.30
2022-11-16T19:19:28.295Z,21.00
2022-11-16T19:21:55.884Z,23.60
2022-11-16T19:24:26.190Z,23.10
2022-11-16T19:26:53.749Z,22.30
2022-11-16T19:29:21.661Z,21.00
2022-11-16T19:31:49.244Z,20.80
2022-11-16T19:34:16.836Z,24.40
2022-11-16T19:36:44.400Z,21.10
2022-11-16T19:39:12.073Z,20.20
2022-11-16T19:41:39.736Z,21.50
2022-11-16T19:44:07.367Z,21.60
2022-11-16T19:46:34.950Z,20.50
2022-11-16T19:49:02.984Z,21.00
2022-11-16T19:51:32.924Z,21.30
2022-11-16T19:54:01.812Z,22.10
2022-11-16T19:56:29.591Z,22.50
2022-11-16T19:58:57.215Z,20.30
2022-11-16T20:01:26.966Z,18.90
2022-11-16T20:03:57.197Z,21.70
2022-11-16T20:06:27.796Z,22.30
2022-11-16T20:08:57.586Z,21.60
2022-11-16T20:11:27.409Z,21.30
2022-11-16T20:13:57.483Z,21.60
2022-11-16T20:16:30.686Z,20.90
2022-11-16T20:19:01.675Z,21.70
2022-11-16T20:21:31.683Z,19.10
2022-11-16T20:24:06.076Z,24.40
2022-11-16T20:26:35.746Z,25.30
2022-11-16T20:29:04.090Z,20.70
2022-11-16T20:31:33.351Z,22.70
2022-11-16T20:34:05.584Z,22.20
2022-11-16T20:36:33.873Z,19.80
2022-11-16T20:39:01.463Z,19.10
2022-11-16T20:41:32.505Z,18.00
2022-11-16T20:44:01.955Z,19.00
2022-11-16T20:46:31.546Z,18.40
2022-11-16T20:49:00.109Z,18.10
2022-11-16T20:51:28.976Z,17.30
2022-11-16T20:53:57.057Z,17.00
2022-11-16T20:56:24.913Z,17.70
2022-11-16T20:58:52.694Z,16.30
2022-11-16T21:01:22.813Z,17.00
2022-11-16T21:03:50.533Z,17.30
2022-11-16T21:06:18.056Z,16.90
2022-11-16T21:08:45.652Z,15.40
2022-11-16T21:11:19.871Z,18.50
2022-11-16T21:13:47.857Z,17.00
2022-11-16T21:16:15.712Z,15.60
2022-11-16T21:18:43.328Z,18.10
2022-11-16T21:21:13.279Z,15.30
2022-11-16T21:23:42.947Z,18.40
2022-11-16T21:26:12.757Z,16.20
2022-11-16T21:28:41.155Z,17.30
2022-11-16T21:31:17.685Z,16.20
2022-11-16T21:33:45.998Z,14.80
2022-11-16T21:36:18.980Z,16.30
2022-11-16T21:38:46.913Z,17.40
2022-11-16T21:41:15.749Z,15.30
2022-11-16T21:43:43.355Z,20.20
2022-11-16T21:46:19.756Z,16.40
2022-11-16T21:48:47.905Z,15.00
2022-11-16T21:51:18.160Z,16.80
2022-11-16T21:53:46.272Z,17.80
2022-11-16T21:56:19.137Z,17.30
2022-11-16T21:58:47.329Z,18.90
2022-11-16T22:01:16.501Z,18.40
2022-11-16T22:03:44.262Z,18.10
2022-11-16T22:06:14.860Z,17.50
2022-11-16T22:08:43.295Z,16.90
2022-11-16T22:11:11.330Z,17.70
2022-11-16T22:13:39.107Z,16.10
2022-11-16T22:16:08.940Z,17.90
2022-11-16T22:18:37.059Z,16.80
2022-11-16T22:21:05.484Z,17.20
2022-11-16T22:23:33.777Z,16.00
2022-11-16T22:26:12.650Z,17.30
2022-11-16T22:28:40.748Z,15.90
2022-11-16T22:31:15.089Z,19.20
2022-11-16T22:33:42.766Z,18.00
2022-11-16T22:36:10.744Z,18.90
2022-11-16T22:38:38.321Z,17.70
2022-11-16T22:41:06.061Z,16.60
2022-11-16T22:43:34.058Z,19.10
2022-11-16T22:46:04.408Z,19.50
2022-11-16T22:48:33.657Z,17.90
2022-11-16T22:51:04.648Z,17.50
2022-11-16T22:53:32.696Z,17.70
2022-11-16T22:56:08.261Z,19.80
2022-11-16T22:58:37.501Z,19.10
2022-11-16T23:01:06.983Z,19.00
2022-11-16T23:03:35.438Z,20.40
2022-11-16T23:06:04.410Z,22.80
2022-11-16T23:08:32.716Z,20.70
2022-11-16T23:11:07.803Z,21.20
2022-11-16T23:13:35.658Z,19.30
2022-11-16T23:16:04.700Z,22.00
2022-11-16T23:18:32.288Z,19.20
2022-11-16T23:20:59.870Z,23.50
2022-11-16T23:23:27.497Z,22.00
2022-11-16T23:25:55.132Z,22.00
2022-11-16T23:28:22.747Z,22.90
2022-11-16T23:30:50.411Z,24.40
2022-11-16T23:33:17.960Z,24.00
2022-11-16T23:35:45.553Z,25.00
2022-11-16T23:38:13.147Z,22.90
2022-11-16T23:40:40.770Z,20.20
2022-11-16T23:43:10.265Z,20.50
2022-11-16T23:45:39.196Z,20.80
2022-11-16T23:48:08.383Z,21.20
2022-11-16T23:50:36.910Z,21.50
2022-11-16T23:53:05.957Z,22.10
2022-11-16T23:55:35.787Z,20.00
2022-11-16T23:58:05.759Z,23.10
